createdAt,value
2022-09-30T00:01:54.721Z,40.60
2022-09-30T00:04:25.763Z,37.10
2022-09-30T00:06:54.400Z,39.92
2022-09-30T00:09:21.997Z,35.38
2022-09-30T00:11:49.422Z,35.05
2022-09-30T00:14:20.559Z,33.75
2022-09-30T00:16:48.030Z,34.40
2022-09-30T00:19:18.084Z,31.70
2022-09-30T00:21:45.344Z,38.03
2022-09-30T00:24:15.058Z,36.25
2022-09-30T00:26:42.281Z,33.05
2022-09-30T00:29:10.959Z,42.40
2022-09-30T00:31:38.335Z,40.28
2022-09-30T00:34:11.744Z,28.23
2022-09-30T00:36:38.780Z,35.03
2022-09-30T00:39:08.353Z,31.58
2022-09-30T00:41:36.115Z,30.38
2022-09-30T00:44:23.294Z,27.27
2022-09-30T00:46:50.686Z,24.80
2022-09-30T00:49:23.882Z,26.92
2022-09-30T00:51:57.814Z,27.35
2022-09-30T00:54:31.118Z,24.98
2022-09-30T00:57:04.330Z,30.13
2022-09-30T00:59:38.336Z,26.83
2022-09-30T01:02:06.684Z,25.67
2022-09-30T01:04:35.335Z,28.90
2022-09-30T01:07:08.905Z,27.98
2022-09-30T01:09:39.799Z,30.25
2022-09-30T01:12:15.591Z,27.55
2022-09-30T01:14:44.972Z,23.38
2022-09-30T01:17:31.721Z,29.30
2022-09-30T01:20:52.897Z,25.02
2022-09-30T01:23:55.059Z,31.10
2022-09-30T01:27:24.734Z,25.40
2022-09-30T01:30:07.923Z,28.70
2022-09-30T01:32:53.586Z,26.42
2022-09-30T01:35:42.822Z,23.45
2022-09-30T01:38:29.494Z,25.85
2022-09-30T01:41:14.631Z,26.80
2022-09-30T01:44:11.375Z,22.90
2022-09-30T01:46:48.211Z,24.98
2022-09-30T01:49:35.012Z,26.75
2022-09-30T01:52:16.661Z,29.02
2022-09-30T01:55:14.029Z,28.47
2022-09-30T01:58:01.436Z,28.85
2022-09-30T02:00:52.306Z,24.83
2022-09-30T02:03:37.843Z,25.85
2022-09-30T02:06:21.800Z,32.13
2022-09-30T02:09:03.329Z,28.73
2022-09-30T02:11:41.118Z,27.33
2022-09-30T02:14:15.989Z,32.28
2022-09-30T02:16:55.265Z,33.85
2022-09-30T02:19:33.920Z,27.70
2022-09-30T02:22:20.252Z,26.02
2022-09-30T02:24:59.902Z,30.05
2022-09-30T02:27:35.098Z,28.80
2022-09-30T02:30:04.334Z,26.67
2022-09-30T02:33:09.578Z,27.83
2022-09-30T02:35:43.689Z,27.92
2022-09-30T02:38:24.973Z,29.52
2022-09-30T02:41:26.535Z,37.30
2022-09-30T02:43:55.742Z,38.20
2022-09-30T02:47:11.625Z,39.20
2022-09-30T02:50:02.324Z,37.00
2022-09-30T02:53:34.432Z,36.53
2022-09-30T02:56:19.826Z,34.22
2022-09-30T02:58:49.441Z,31.85
2022-09-30T03:01:17.740Z,35.00
2022-09-30T03:04:13.094Z,36.90
2022-09-30T03:06:40.288Z,42.78
2022-09-30T03:09:09.207Z,36.55
2022-09-30T03:11:40.339Z,30.15
2022-09-30T03:15:01.487Z,25.85
2022-09-30T03:18:04.350Z,37.95
2022-09-30T03:21:27.214Z,29.80
2022-09-30T03:24:37.163Z,31.45
2022-09-30T03:28:05.981Z,47.42
2022-09-30T03:30:41.577Z,29.23
2022-09-30T03:33:24.389Z,30.27
2022-09-30T03:36:15.601Z,26.52
2022-09-30T03:39:01.726Z,28.77
2022-09-30T03:41:43.886Z,31.77
2022-09-30T03:44:40.670Z,29.20
2022-09-30T03:47:12.900Z,25.10
2022-09-30T03:52:15.897Z,35.17
2022-09-30T03:55:00.636Z,33.50
2022-09-30T03:57:29.492Z,30.10
2022-09-30T04:00:02.154Z,32.75
2022-09-30T04:02:29.473Z,33.80
2022-09-30T04:04:56.679Z,26.15
2022-09-30T04:07:25.913Z,33.28
2022-09-30T04:09:53.022Z,33.40
2022-09-30T04:12:20.118Z,35.05
2022-09-30T04:14:50.343Z,31.30
2022-09-30T04:17:19.867Z,33.13
2022-09-30T04:19:47.081Z,36.40
2022-09-30T04:22:14.138Z,29.67
2022-09-30T04:24:41.378Z,34.63
2022-09-30T04:27:08.362Z,30.70
2022-09-30T04:29:35.613Z,29.73
2022-09-30T04:32:02.769Z,28.75
2022-09-30T04:34:29.778Z,29.42
2022-09-30T04:36:56.776Z,29.48
2022-09-30T04:39:24.048Z,35.65
2022-09-30T04:41:53.955Z,32.42
2022-09-30T04:44:22.712Z,38.30
2022-09-30T04:46:50.708Z,41.15
2022-09-30T04:49:18.822Z,43.75
2022-09-30T04:51:46.304Z,43.83
2022-09-30T04:54:19.451Z,39.90
2022-09-30T04:56:46.460Z,35.53
2022-09-30T04:59:21.142Z,39.35
2022-09-30T05:01:48.292Z,51.75
2022-09-30T05:04:16.702Z,54.72
2022-09-30T05:06:44.106Z,44.03
2022-09-30T05:09:11.249Z,46.22
2022-09-30T05:11:43.010Z,42.25
2022-09-30T05:14:14.907Z,67.75
2022-09-30T05:16:42.007Z,74.28
2022-09-30T05:19:11.827Z,51.05
2022-09-30T05:21:38.820Z,52.05
2022-09-30T05:24:05.827Z,48.22
2022-09-30T05:26:34.056Z,50.38
2022-09-30T05:29:01.095Z,48.72
2022-09-30T05:31:30.515Z,48.15
2022-09-30T05:33:59.844Z,53.10
2022-09-30T05:36:30.424Z,47.33
2022-09-30T05:38:57.539Z,56.63
2022-09-30T05:41:24.785Z,46.42
2022-09-30T05:43:51.880Z,53.42
2022-09-30T05:46:20.332Z,43.85
2022-09-30T05:48:47.719Z,44.78
